| time (UTC) | temp C | wind direction | speed KPH | gust KPH | rain 1hr cm | rain 24hr cm | rain mn cm | humidity % | barometer mb |
| 20260507170047 | 10 | 315 | 0.0 | 0.0 | 0.00 | 0.00 | 0.03 | 9 | 1002.6 |
| 20260507165540 | 10 | 315 | 0.0 | 0.0 | 0.00 | 0.00 | 0.03 | 9 | 1001.5 |
| 20260507165032 | 10 | 0 | 8.0 | 9.7 | 0.00 | 0.00 | 0.03 | 9 | 1001.9 |
| 20260507164524 | 10 | -1 | 8.0 | 14.5 | 0.00 | 0.00 | 0.03 | 9 | 1002.3 |
| 20260507164017 | 10 | 315 | 9.7 | 16.1 | 0.00 | 0.00 | 0.03 | 9 | 1001.6 |
| 20260507163510 | 10 | -1 | 11.3 | 17.7 | 0.00 | 0.00 | 0.03 | 8 | 1001.0 |
| 20260507163003 | 10 | -1 | 9.7 | 14.5 | 0.00 | 0.00 | 0.03 | 8 | 1000.1 |
| 20260507162456 | 10 | -1 | 9.7 | 4.8 | 0.00 | 0.00 | 0.03 | 8 | 1001.7 |
| 20260507161948 | 10 | 315 | 0.0 | 0.0 | 0.00 | 0.00 | 0.03 | 8 | 1000.6 |
| 20260507161442 | 10 | 315 | 0.0 | 0.0 | 0.00 | 0.00 | 0.03 | 8 | 1001.2 |
| 20260507160935 | 10 | -1 | 9.7 | 12.9 | 0.00 | 0.00 | 0.03 | 8 | 1001.7 |
| 20260507160427 | 10 | -1 | 9.7 | 14.5 | 0.00 | 0.00 | 0.03 | 9 | 1000.9 |
| 20260507155921 | 10 | 315 | 12.9 | 20.9 | 0.00 | 0.00 | 0.03 | 9 | 1001.6 |
| 20260507155413 | 10 | -1 | 14.5 | 20.9 | 0.00 | 0.00 | 0.03 | 9 | 1000.4 |
| 20260507154907 | 10 | -1 | 14.5 | 22.5 | 0.00 | 0.00 | 0.03 | 9 | 1000.1 |
| 20260507154359 | 10 | -1 | 14.5 | 30.6 | 0.00 | 0.00 | 0.03 | 9 | 1000.3 |
| 20260507153851 | 10 | -1 | 16.1 | 24.1 | 0.00 | 0.00 | 0.03 | 9 | 999.6 |
| 20260507153344 | 10 | -1 | 17.7 | 29.0 | 0.00 | 0.00 | 0.03 | 9 | 998.5 |
| 20260507152836 | 11 | -1 | 12.9 | 17.7 | 0.00 | 0.00 | 0.03 | 8 | 1001.7 |
| 20260507152329 | 11 | -1 | 11.3 | 17.7 | 0.00 | 0.00 | 0.03 | 8 | 1001.6 |
| 20260507151821 | 11 | -1 | 11.3 | 19.3 | 0.00 | 0.00 | 0.03 | 8 | 1001.6 |
| 20260507151314 | 11 | -1 | 9.7 | 12.9 | 0.00 | 0.00 | 0.03 | 8 | 1002.3 |
| 20260507150806 | 11 | -1 | 9.7 | 16.1 | 0.00 | 0.00 | 0.03 | 8 | 999.8 |
| 20260507150259 | 11 | 225 | 8.0 | 16.1 | 0.00 | 0.00 | 0.03 | 8 | 1000.4 |
| 20260507145751 | 11 | -1 | 12.9 | 19.3 | 0.00 | 0.00 | 0.03 | 7 | 1004.2 |
| 20260507145244 | 11 | -1 | 16.1 | 27.4 | 0.00 | 0.00 | 0.03 | 8 | 998.7 |
| 20260507144736 | 11 | -1 | 14.5 | 24.1 | 0.00 | 0.00 | 0.03 | 8 | 999.4 |
| 20260507144228 | 10 | -1 | 14.5 | 20.9 | 0.00 | 0.00 | 0.03 | 8 | 1000.4 |
| 20260507143721 | 10 | -1 | 12.9 | 25.7 | 0.00 | 0.00 | 0.03 | 8 | 1000.9 |
| 20260507143212 | 10 | -1 | 16.1 | 24.1 | 0.00 | 0.00 | 0.03 | 9 | 1000.4 |
| 20260507142706 | 10 | 225 | 17.7 | 25.7 | 0.00 | 0.00 | 0.03 | 9 | 999.1 |
| 20260507142159 | 10 | -1 | 17.7 | 30.6 | 0.00 | 0.00 | 0.03 | 9 | 999.4 |
| 20260507141651 | 10 | 225 | 19.3 | 32.2 | 0.00 | 0.00 | 0.03 | 8 | 1000.9 |
| 20260507141145 | 10 | -1 | 20.9 | 32.2 | 0.00 | 0.00 | 0.03 | 9 | 998.9 |
| 20260507140637 | 10 | -1 | 22.5 | 33.8 | 0.00 | 0.00 | 0.03 | 8 | 998.4 |
| 20260507140130 | 10 | 225 | 22.5 | 32.2 | 0.00 | 0.00 | 0.03 | 9 | 998.1 |
| 20260507135622 | 10 | 225 | 25.7 | 40.2 | 0.00 | 0.00 | 0.03 | 8 | 999.1 |
| 20260507135115 | 10 | -1 | 29.0 | 53.1 | 0.00 | 0.00 | 0.03 | 8 | 998.1 |
| 20260507134607 | 12 | -1 | 20.9 | 45.1 | 0.00 | 0.00 | 0.00 | 8 | 997.2 |
| 20260507134059 | 12 | -1 | 19.3 | 33.8 | 0.00 | 0.00 | 0.00 | 7 | 996.2 |
| 20260507133551 | 12 | -1 | 20.9 | 33.8 | 0.00 | 0.00 | 0.00 | 7 | 994.1 |
| 20260507133044 | 12 | 225 | 17.7 | 33.8 | 0.00 | 0.00 | 0.00 | 7 | 998.1 |
| 20260507132537 | 12 | -1 | 20.9 | 33.8 | 0.00 | 0.00 | 0.00 | 7 | 997.8 |
| 20260507132030 | 12 | -1 | 12.9 | 20.9 | 0.00 | 0.00 | 0.00 | 7 | 1001.0 |
| 20260507131522 | 12 | -1 | 16.1 | 27.4 | 0.00 | 0.00 | 0.00 | 7 | 998.7 |
| 20260507131015 | 12 | 225 | 25.7 | 43.5 | 0.00 | 0.00 | 0.00 | 7 | 998.6 |
| 20260507130507 | 12 | -1 | 22.5 | 35.4 | 0.00 | 0.00 | 0.00 | 7 | 993.7 |
| 20260507130000 | 13 | 225 | 25.7 | 37.0 | 0.00 | 0.00 | 0.00 | 7 | 993.1 |
| 20260507125453 | 13 | -1 | 20.9 | 35.4 | 0.00 | 0.00 | 0.00 | 6 | 995.3 |
| 20260507124946 | 13 | -1 | 22.5 | 32.2 | 0.00 | 0.00 | 0.00 | 7 | 992.9 |
| 20260507124439 | 12 | -1 | 17.7 | 27.4 | 0.00 | 0.00 | 0.00 | 6 | 996.8 |
| 20260507123931 | 12 | 225 | 17.7 | 27.4 | 0.00 | 0.00 | 0.00 | 6 | 996.7 |
| 20260507123424 | 12 | -1 | 16.1 | 22.5 | 0.00 | 0.00 | 0.00 | 7 | 994.1 |
| 20260507122917 | 12 | -1 | 20.9 | 32.2 | 0.00 | 0.00 | 0.00 | 7 | 994.2 |
| 20260507122408 | 12 | 225 | 16.1 | 33.8 | 0.00 | 0.00 | 0.00 | 6 | 996.0 |
| 20260507121900 | 12 | -1 | 22.5 | 33.8 | 0.00 | 0.00 | 0.00 | 6 | 995.4 |
| 20260507121352 | 13 | 225 | 20.9 | 32.2 | 0.00 | 0.00 | 0.00 | 7 | 995.0 |
| 20260507120845 | 13 | 270 | 22.5 | 33.8 | 0.00 | 0.00 | 0.00 | 7 | 993.5 |
| 20260507120337 | 12 | -1 | 22.5 | 37.0 | 0.00 | 0.00 | 0.00 | 7 | 992.5 |
| 20260507115830 | 13 | 225 | 16.1 | 29.0 | 0.00 | 0.00 | 0.00 | 6 | 994.7 |
| 20260507115323 | 12 | -1 | 20.9 | 30.6 | 0.00 | 0.00 | 0.00 | 7 | 991.1 |
| 20260507114816 | 12 | -1 | 20.9 | 32.2 | 0.00 | 0.00 | 0.00 | 6 | 995.8 |
| 20260507114309 | 12 | -1 | 19.3 | 32.2 | 0.00 | 0.00 | 0.00 | 6 | 995.3 |
| 20260507113802 | 12 | 225 | 14.5 | 25.7 | 0.00 | 0.00 | 0.00 | 6 | 995.7 |
| 20260507113254 | 12 | -1 | 20.9 | 30.6 | 0.00 | 0.00 | 0.00 | 6 | 995.9 |
| 20260507112747 | 12 | 225 | 22.5 | 35.4 | 0.00 | 0.00 | 0.00 | 6 | 994.5 |
| 20260507112240 | 12 | -1 | 22.5 | 32.2 | 0.00 | 0.00 | 0.00 | 6 | 996.6 |
| 20260507111732 | 12 | 225 | 22.5 | 33.8 | 0.00 | 0.00 | 0.00 | 7 | 995.6 |
| 20260507111225 | 12 | -1 | 25.7 | 38.6 | 0.00 | 0.00 | 0.00 | 7 | 992.5 |
| 20260507110717 | 12 | -1 | 22.5 | 35.4 | 0.00 | 0.00 | 0.00 | 7 | 993.9 |
| 20260507110210 | 12 | -1 | 24.1 | 40.2 | 0.00 | 0.00 | 0.00 | 6 | 994.8 |
| 20260507105703 | 12 | -1 | 25.7 | 35.4 | 0.00 | 0.00 | 0.00 | 7 | 993.1 |
| 20260507105156 | 12 | -1 | 29.0 | 41.8 | 0.00 | 0.00 | 0.00 | 7 | 994.8 |
| 20260507104649 | 12 | -1 | 24.1 | 33.8 | 0.00 | 0.00 | 0.00 | 6 | 995.8 |
| 20260507104142 | 12 | -1 | 22.5 | 37.0 | 0.00 | 0.00 | 0.00 | 7 | 991.8 |
| 20260507103634 | 12 | -1 | 20.9 | 33.8 | 0.00 | 0.00 | 0.00 | 7 | 995.2 |
| 20260507103126 | 11 | -1 | 24.1 | 37.0 | 0.00 | 0.00 | 0.00 | 7 | 993.8 |
| 20260507102619 | 11 | -1 | 20.9 | 32.2 | 0.00 | 0.00 | 0.00 | 7 | 995.9 |
| 20260507102111 | 11 | -1 | 20.9 | 37.0 | 0.00 | 0.00 | 0.00 | 7 | 992.0 |
| 20260507101604 | 12 | -1 | 22.5 | 37.0 | 0.00 | 0.00 | 0.00 | 7 | 992.0 |
| 20260507101056 | 12 | -1 | 20.9 | 33.8 | 0.00 | 0.00 | 0.00 | 7 | 994.6 |
| 20260507100549 | 12 | -1 | 27.4 | 38.6 | 0.00 | 0.00 | 0.00 | 7 | 993.3 |
| 20260507100042 | 12 | -1 | 22.5 | 37.0 | 0.00 | 0.00 | 0.00 | 6 | 994.4 |
| 20260507095536 | 11 | -1 | 24.1 | 35.4 | 0.00 | 0.00 | 0.00 | 7 | 992.1 |
| 20260507095028 | 12 | -1 | 25.7 | 45.1 | 0.00 | 0.00 | 0.00 | 7 | 991.8 |
| 20260507094521 | 12 | -1 | 25.7 | 43.5 | 0.00 | 0.00 | 0.00 | 7 | 993.6 |
| 20260507094013 | 12 | -1 | 27.4 | 41.8 | 0.00 | 0.00 | 0.00 | 7 | 992.3 |
| 20260507093506 | 12 | -1 | 27.4 | 41.8 | 0.00 | 0.00 | 0.00 | 7 | 991.6 |
| 20260507092959 | 12 | -1 | 24.1 | 35.4 | 0.00 | 0.00 | 0.00 | 7 | 995.2 |
| 20260507092452 | 12 | -1 | 22.5 | 33.8 | 0.00 | 0.00 | 0.00 | 7 | 994.8 |
| 20260507091945 | 12 | -1 | 24.1 | 33.8 | 0.00 | 0.00 | 0.00 | 8 | 991.5 |
| 20260507091438 | 12 | -1 | 27.4 | 38.6 | 0.00 | 0.00 | 0.00 | 7 | 994.2 |
| 20260507090931 | 11 | -1 | 27.4 | 40.2 | 0.00 | 0.00 | 0.00 | 7 | 991.4 |
| 20260507090424 | 11 | -1 | 20.9 | 35.4 | 0.00 | 0.00 | 0.00 | 7 | 992.8 |
| 20260507085917 | 11 | -1 | 27.4 | 43.5 | 0.00 | 0.00 | 0.00 | 7 | 992.0 |
| 20260507085410 | 12 | -1 | 27.4 | 48.3 | 0.00 | 0.00 | 0.00 | 7 | 993.9 |
| 20260507084903 | 12 | -1 | 29.0 | 40.2 | 0.00 | 0.00 | 0.00 | 7 | 995.1 |
| 20260507084356 | 12 | -1 | 27.4 | 46.7 | 0.00 | 0.00 | 0.00 | 8 | 991.9 |
| 20260507083849 | 12 | -1 | 25.7 | 40.2 | 0.00 | 0.00 | 0.00 | 7 | 994.9 |
| 20260507083341 | 11 | -1 | 24.1 | 35.4 | 0.00 | 0.00 | 0.00 | 8 | 994.8 |
| 20260507082834 | 11 | -1 | 29.0 | 45.1 | 0.00 | 0.00 | 0.00 | 8 | 992.8 |
| 20260507082327 | 11 | -1 | 27.4 | 43.5 | 0.00 | 0.00 | 0.00 | 7 | 992.8 |
| 20260507081819 | 11 | -1 | 30.6 | 43.5 | 0.00 | 0.00 | 0.00 | 8 | 993.4 |
| 20260507081312 | 12 | -1 | 27.4 | 41.8 | 0.00 | 0.00 | 0.00 | 8 | 995.1 |
| 20260507080804 | 12 | -1 | 25.7 | 38.6 | 0.00 | 0.00 | 0.00 | 8 | 994.1 |
| 20260507080257 | 12 | -1 | 27.4 | 41.8 | 0.00 | 0.00 | 0.00 | 8 | 994.6 |
| 20260507075750 | 11 | -1 | 30.6 | 48.3 | 0.00 | 0.00 | 0.00 | 8 | 993.0 |
| 20260507075243 | 12 | -1 | 32.2 | 46.7 | 0.00 | 0.00 | 0.00 | 8 | 992.5 |
| 20260507074735 | 12 | -1 | 27.4 | 40.2 | 0.00 | 0.00 | 0.00 | 8 | 992.9 |
| 20260507074228 | 12 | -1 | 29.0 | 40.2 | 0.00 | 0.00 | 0.00 | 8 | 994.2 |
| 20260507073721 | 11 | -1 | 29.0 | 45.1 | 0.00 | 0.00 | 0.00 | 8 | 994.1 |
| 20260507073213 | 11 | -1 | 32.2 | 43.5 | 0.00 | 0.00 | 0.00 | 8 | 994.0 |
| 20260507072706 | 11 | -1 | 29.0 | 41.8 | 0.00 | 0.00 | 0.00 | 9 | 994.6 |
| 20260507072158 | 11 | -1 | 32.2 | 51.5 | 0.00 | 0.00 | 0.00 | 8 | 993.4 |
| 20260507071651 | 11 | -1 | 30.6 | 43.5 | 0.00 | 0.00 | 0.00 | 8 | 996.3 |
| 20260507071144 | 11 | -1 | 37.0 | 54.7 | 0.00 | 0.00 | 0.00 | 8 | 993.7 |
| 20260507070636 | 11 | -1 | 30.6 | 45.1 | 0.00 | 0.00 | 0.00 | 8 | 992.4 |
| 20260507070129 | 11 | -1 | 30.6 | 46.7 | 0.00 | 0.00 | 0.00 | 8 | 995.8 |
| 20260507065622 | 11 | -1 | 32.2 | 54.7 | 0.00 | 0.00 | 0.00 | 8 | 994.3 |
| 20260507065114 | 11 | -1 | 30.6 | 46.7 | 0.00 | 0.00 | 0.00 | 8 | 995.3 |
| 20260507064607 | 11 | -1 | 30.6 | 45.1 | 0.00 | 0.00 | 0.00 | 9 | 996.3 |
| 20260507064100 | 11 | -1 | 25.7 | 43.5 | 0.00 | 0.00 | 0.00 | 8 | 995.0 |
| 20260507063552 | 11 | -1 | 27.4 | 43.5 | 0.00 | 0.00 | 0.00 | 8 | 997.2 |
| 20260507063045 | 11 | -1 | 24.1 | 37.0 | 0.00 | 0.00 | 0.00 | 8 | 995.3 |
| 20260507062538 | 11 | -1 | 29.0 | 48.3 | 0.00 | 0.00 | 0.00 | 8 | 995.8 |
| 20260507062032 | 11 | -1 | 33.8 | 49.9 | 0.00 | 0.00 | 0.00 | 9 | 994.4 |
| 20260507061523 | 11 | -1 | 33.8 | 51.5 | 0.00 | 0.00 | 0.00 | 8 | 994.5 |
| 20260507061016 | 11 | -1 | 32.2 | 48.3 | 0.00 | 0.00 | 0.00 | 9 | 997.4 |
| 20260507060507 | 11 | -1 | 33.8 | 53.1 | 0.00 | 0.00 | 0.00 | 9 | 995.8 |
| 20260507055959 | 11 | -1 | 25.7 | 41.8 | 0.00 | 0.00 | 0.00 | 9 | 996.9 |
| 20260507055452 | 11 | -1 | 25.7 | 37.0 | 0.00 | 0.00 | 0.00 | 9 | 996.2 |
| 20260507054944 | 10 | 225 | 24.1 | 38.6 | 0.00 | 0.00 | 0.00 | 9 | 998.1 |
| 20260507054437 | 10 | -1 | 22.5 | 35.4 | 0.00 | 0.00 | 0.00 | 9 | 995.4 |
| 20260507053930 | 10 | -1 | 24.1 | 35.4 | 0.00 | 0.00 | 0.00 | 9 | 995.8 |
| 20260507053423 | 10 | -1 | 27.4 | 40.2 | 0.00 | 0.00 | 0.00 | 9 | 997.3 |
| 20260507052916 | 10 | 225 | 24.1 | 33.8 | 0.00 | 0.00 | 0.00 | 9 | 996.5 |
| 20260507052408 | 10 | 225 | 24.1 | 37.0 | 0.00 | 0.00 | 0.00 | 9 | 996.4 |
| 20260507051901 | 10 | -1 | 27.4 | 38.6 | 0.00 | 0.00 | 0.00 | 9 | 995.7 |
| 20260507051353 | 10 | -1 | 25.7 | 38.6 | 0.00 | 0.00 | 0.00 | 9 | 995.8 |
| 20260507050846 | 10 | -1 | 22.5 | 37.0 | 0.00 | 0.00 | 0.00 | 9 | 996.2 |
| 20260507050339 | 10 | -1 | 22.5 | 30.6 | 0.00 | 0.00 | 0.00 | 9 | 997.3 |
| 20260507045832 | 10 | -1 | 22.5 | 35.4 | 0.00 | 0.00 | 0.00 | 9 | 996.2 |
| 20260507045325 | 10 | -1 | 19.3 | 29.0 | 0.00 | 0.00 | 0.00 | 10 | 996.8 |
| 20260507044818 | 10 | 225 | 17.7 | 27.4 | 0.00 | 0.00 | 0.00 | 9 | 997.4 |
| 20260507044311 | 10 | 225 | 16.1 | 25.7 | 0.00 | 0.00 | 0.00 | 10 | 997.3 |
| 20260507043804 | 10 | 225 | 17.7 | 24.1 | 0.00 | 0.00 | 0.00 | 10 | 998.6 |
| 20260507043257 | 10 | 225 | 19.3 | 33.8 | 0.00 | 0.00 | 0.00 | 10 | 997.3 |
| 20260507042750 | 10 | 225 | 20.9 | 30.6 | 0.00 | 0.00 | 0.00 | 10 | 998.0 |
| 20260507042243 | 10 | 225 | 19.3 | 29.0 | 0.00 | 0.00 | 0.00 | 10 | 997.4 |
| 20260507041736 | 10 | -1 | 16.1 | 24.1 | 0.00 | 0.00 | 0.00 | 10 | 995.5 |
| 20260507041229 | 10 | -1 | 19.3 | 30.6 | 0.00 | 0.00 | 0.00 | 9 | 996.5 |
| 20260507040722 | 10 | 225 | 16.1 | 24.1 | 0.00 | 0.00 | 0.00 | 10 | 995.8 |
| 20260507040215 | 10 | 225 | 17.7 | 25.7 | 0.00 | 0.00 | 0.00 | 9 | 997.6 |
| 20260507035708 | 10 | -1 | 19.3 | 29.0 | 0.00 | 0.00 | 0.00 | 9 | 995.6 |
| 20260507035201 | 10 | 270 | 16.1 | 24.1 | 0.00 | 0.00 | 0.00 | 9 | 996.6 |
| 20260507034653 | 10 | 270 | 14.5 | 24.1 | 0.00 | 0.00 | 0.00 | 9 | 995.7 |
| 20260507034146 | 10 | 225 | 16.1 | 24.1 | 0.00 | 0.00 | 0.00 | 9 | 995.2 |
| 20260507033639 | 10 | 225 | 19.3 | 27.4 | 0.00 | 0.00 | 0.00 | 9 | 994.8 |
| 20260507033132 | 10 | 225 | 20.9 | 33.8 | 0.00 | 0.00 | 0.00 | 9 | 995.3 |
| 20260507032624 | 9 | 225 | 19.3 | 30.6 | 0.00 | 0.00 | 0.00 | 9 | 996.9 |
| 20260507032116 | 9 | -1 | 14.5 | 24.1 | 0.00 | 0.00 | 0.00 | 9 | 996.6 |
| 20260507031608 | 9 | 225 | 14.5 | 20.9 | 0.00 | 0.00 | 0.00 | 10 | 996.2 |
| 20260507031101 | 9 | 225 | 16.1 | 22.5 | 0.00 | 0.00 | 0.00 | 9 | 996.5 |
| 20260507030553 | 9 | 225 | 14.5 | 27.4 | 0.00 | 0.00 | 0.00 | 9 | 996.1 |
| 20260507030046 | 9 | 202 | 17.7 | 25.7 | 0.00 | 0.00 | 0.00 | 9 | 995.3 |
| 20260507025539 | 9 | 225 | 16.1 | 25.7 | 0.00 | 0.00 | 0.00 | 9 | 994.5 |
| 20260507025032 | 9 | -1 | 19.3 | 30.6 | 0.00 | 0.00 | 0.00 | 9 | 995.3 |
| 20260507024525 | 9 | 225 | 22.5 | 32.2 | 0.00 | 0.00 | 0.00 | 9 | 993.7 |
| 20260507024018 | 9 | 225 | 24.1 | 33.8 | 0.00 | 0.00 | 0.00 | 9 | 994.2 |
| 20260507023511 | 9 | 225 | 17.7 | 27.4 | 0.00 | 0.00 | 0.00 | 9 | 996.2 |
| 20260507023004 | 9 | 225 | 19.3 | 27.4 | 0.00 | 0.00 | 0.00 | 9 | 993.9 |
| 20260507022457 | 9 | 225 | 17.7 | 27.4 | 0.00 | 0.00 | 0.00 | 9 | 996.5 |
| 20260507021950 | 9 | 225 | 22.5 | 35.4 | 0.00 | 0.00 | 0.00 | 9 | 994.7 |
| 20260507021443 | 9 | 225 | 24.1 | 32.2 | 0.00 | 0.00 | 0.00 | 9 | 993.8 |
| 20260507020936 | 9 | 225 | 19.3 | 27.4 | 0.00 | 0.00 | 0.00 | 9 | 993.8 |
| 20260507020429 | 9 | 225 | 19.3 | 27.4 | 0.00 | 0.00 | 0.00 | 9 | 994.5 |
| 20260507015922 | 9 | 225 | 16.1 | 25.7 | 0.00 | 0.00 | 0.00 | 9 | 994.8 |
| 20260507015414 | 9 | 225 | 12.9 | 20.9 | 0.00 | 0.00 | 0.00 | 9 | 998.2 |
| 20260507014907 | 10 | -1 | 16.1 | 25.7 | 0.00 | 0.00 | 0.00 | 10 | 995.7 |
| 20260507014400 | 10 | -1 | 19.3 | 30.6 | 0.00 | 0.00 | 0.00 | 10 | 996.1 |
| 20260507013853 | 10 | 225 | 19.3 | 30.6 | 0.00 | 0.00 | 0.00 | 9 | 994.8 |
| 20260507013346 | 10 | 225 | 20.9 | 29.0 | 0.00 | 0.00 | 0.00 | 9 | 994.8 |
| 20260507012838 | 10 | 225 | 17.7 | 27.4 | 0.00 | 0.00 | 0.00 | 9 | 993.8 |
| 20260507012331 | 10 | 225 | 17.7 | 24.1 | 0.00 | 0.00 | 0.00 | 9 | 994.5 |
| 20260507011824 | 10 | 225 | 16.1 | 24.1 | 0.00 | 0.00 | 0.00 | 9 | 993.9 |
| 20260507011316 | 10 | 225 | 12.9 | 20.9 | 0.00 | 0.00 | 0.00 | 9 | 995.0 |
| 20260507010809 | 10 | 225 | 12.9 | 20.9 | 0.00 | 0.00 | 0.00 | 9 | 996.3 |
| 20260507010302 | 10 | 270 | 14.5 | 20.9 | 0.00 | 0.00 | 0.00 | 10 | 995.5 |
| 20260507005755 | 10 | 225 | 17.7 | 27.4 | 0.00 | 0.00 | 0.00 | 10 | 995.1 |
| 20260507005248 | 10 | 225 | 19.3 | 27.4 | 0.00 | 0.00 | 0.00 | 10 | 994.6 |
| 20260507004741 | 10 | 225 | 19.3 | 29.0 | 0.00 | 0.00 | 0.00 | 10 | 996.7 |
| 20260507004234 | 10 | -1 | 20.9 | 33.8 | 0.00 | 0.00 | 0.00 | 10 | 996.0 |
| 20260507003727 | 10 | -1 | 22.5 | 33.8 | 0.00 | 0.00 | 0.00 | 10 | 995.7 |
| 20260507003220 | 10 | -1 | 24.1 | 35.4 | 0.00 | 0.00 | 0.00 | 9 | 996.0 |
| 20260507002712 | 10 | -1 | 19.3 | 30.6 | 0.00 | 0.00 | 0.00 | 10 | 994.3 |
| 20260507002206 | 10 | -1 | 17.7 | 24.1 | 0.00 | 0.00 | 0.00 | 9 | 995.6 |
| 20260507001657 | 10 | -1 | 17.7 | 27.4 | 0.00 | 0.00 | 0.00 | 9 | 995.1 |
| 20260507001150 | 10 | 225 | 12.9 | 19.3 | 0.00 | 0.00 | 0.00 | 9 | 997.0 |
| 20260507000643 | 10 | -1 | 12.9 | 17.7 | 0.00 | 0.00 | 0.00 | 10 | 994.5 |
| 20260507000136 | 10 | 225 | 12.9 | 19.3 | 0.00 | 0.00 | 0.00 | 9 | 994.2 |
| 20260506235629 | 10 | 225 | 9.7 | 14.5 | 0.00 | 0.00 | 0.30 | 8 | 995.2 |
| 20260506235121 | 10 | 225 | 11.3 | 17.7 | 0.00 | 0.00 | 0.30 | 9 | 996.5 |
| 20260506234614 | 10 | 225 | 11.3 | 17.7 | 0.00 | 0.00 | 0.30 | 9 | 997.1 |
| 20260506234107 | 10 | -1 | 11.3 | 17.7 | 0.00 | 0.00 | 0.30 | 9 | 996.8 |
| 20260506233600 | 10 | 225 | 11.3 | 16.1 | 0.00 | 0.00 | 0.30 | 9 | 995.6 |
| 20260506233053 | 10 | -1 | 11.3 | 19.3 | 0.00 | 0.00 | 0.30 | 9 | 995.4 |
| 20260506232546 | 10 | -1 | 9.7 | 14.5 | 0.00 | 0.00 | 0.30 | 9 | 995.4 |
| 20260506232038 | 10 | -1 | 9.7 | 16.1 | 0.00 | 0.00 | 0.30 | 9 | 995.3 |
| 20260506231531 | 10 | -1 | 9.7 | 16.1 | 0.00 | 0.00 | 0.30 | 10 | 993.8 |
| 20260506231024 | 10 | -1 | 11.3 | 16.1 | 0.00 | 0.00 | 0.30 | 9 | 995.1 |
| 20260506230517 | 11 | -1 | 12.9 | 19.3 | 0.00 | 0.00 | 0.30 | 9 | 993.2 |
| 20260506230009 | 11 | -1 | 9.7 | 14.5 | 0.00 | 0.00 | 0.30 | 8 | 996.4 |
| 20260506225501 | 11 | -1 | 11.3 | 20.9 | 0.00 | 0.00 | 0.30 | 9 | 997.5 |
| 20260506224954 | 11 | -1 | 11.3 | 20.9 | 0.00 | 0.00 | 0.30 | 10 | 995.6 |
| 20260506224447 | 11 | -1 | 12.9 | 19.3 | 0.00 | 0.00 | 0.30 | 9 | 996.2 |
| 20260506223939 | 11 | -1 | 14.5 | 22.5 | 0.00 | 0.00 | 0.30 | 10 | 998.1 |
| 20260506223432 | 11 | -1 | 11.3 | 17.7 | 0.00 | 0.00 | 0.30 | 10 | 997.7 |
| 20260506222925 | 11 | -1 | 0.0 | 0.0 | 0.00 | 0.00 | 0.30 | 10 | 996.4 |
| 20260506222418 | 11 | -1 | 0.0 | 0.0 | 0.00 | 0.00 | 0.30 | 9 | 995.3 |
| 20260506221911 | 11 | -1 | 0.0 | 0.0 | 0.00 | 0.00 | 0.30 | 9 | 996.6 |
| 20260506221404 | 11 | -1 | 0.0 | 0.0 | 0.00 | 0.00 | 0.30 | 9 | 995.8 |
| 20260506220856 | 11 | -1 | 0.0 | 0.0 | 0.00 | 0.00 | 0.30 | 9 | 996.2 |
| 20260506220349 | 11 | -1 | 0.0 | 0.0 | 0.00 | 0.00 | 0.30 | 9 | 993.9 |
| 20260506215842 | 11 | 225 | 0.0 | 0.0 | 0.00 | 0.00 | 0.30 | 8 | 996.4 |
| 20260506215335 | 11 | -1 | 0.0 | 0.0 | 0.00 | 0.00 | 0.30 | 9 | 996.8 |
| 20260506214828 | 11 | -1 | 0.0 | 0.0 | 0.00 | 0.00 | 0.30 | 9 | 995.4 |
| 20260506214321 | 11 | -1 | 0.0 | 0.0 | 0.00 | 0.00 | 0.30 | 8 | 996.0 |
| 20260506213813 | 11 | -1 | 9.7 | 12.9 | 0.00 | 0.00 | 0.30 | 9 | 995.5 |
| 20260506213306 | 11 | -1 | 8.0 | 12.9 | 0.00 | 0.00 | 0.28 | 10 | 996.9 |
| 20260506212759 | 11 | -1 | 6.4 | 11.3 | 0.00 | 0.00 | 0.28 | 9 | 996.8 |
| 20260506212251 | 11 | -1 | 11.3 | 20.9 | 0.00 | 0.00 | 0.28 | 9 | 995.2 |
| 20260506211743 | 11 | -1 | 11.3 | 16.1 | 0.00 | 0.00 | 0.25 | 8 | 994.8 |
| 20260506211235 | 12 | -1 | 9.7 | 14.5 | 0.00 | 0.00 | 0.25 | 8 | 995.1 |
| 20260506210727 | 12 | -1 | 9.7 | 16.1 | 0.00 | 0.00 | 0.25 | 8 | 996.2 |
| 20260506210220 | 12 | -1 | 11.3 | 17.7 | 0.00 | 0.00 | 0.25 | 8 | 996.8 |
| 20260506205712 | 12 | -1 | 12.9 | 20.9 | 0.00 | 0.00 | 0.25 | 9 | 995.8 |
| 20260506205205 | 12 | -1 | 19.3 | 25.7 | 0.00 | 0.00 | 0.25 | 9 | 995.9 |
| 20260506204658 | 12 | -1 | 17.7 | 24.1 | 0.00 | 0.00 | 0.25 | 9 | 996.6 |
| 20260506204151 | 12 | -1 | 0.0 | 0.0 | 0.00 | 0.00 | 0.25 | 9 | 995.4 |
| 20260506203644 | 12 | -1 | 0.0 | 0.0 | 0.00 | 0.00 | 0.25 | 8 | 994.0 |
| 20260506203136 | 12 | -1 | 0.0 | 0.0 | 0.00 | 0.00 | 0.25 | 9 | 995.5 |
| 20260506202629 | 12 | -1 | 8.0 | 14.5 | 0.00 | 0.00 | 0.25 | 9 | 994.8 |
| 20260506202121 | 12 | -1 | 12.9 | 27.4 | 0.00 | 0.00 | 0.25 | 8 | 994.0 |
| 20260506201613 | 12 | -1 | 19.3 | 29.0 | 0.00 | 0.00 | 0.25 | 8 | 992.3 |
| 20260506201106 | 12 | -1 | 16.1 | 24.1 | 0.00 | 0.00 | 0.23 | 8 | 993.0 |
| 20260506200558 | 12 | -1 | 14.5 | 22.5 | 0.00 | 0.00 | 0.23 | 8 | 994.6 |
| 20260506200050 | 12 | -1 | 14.5 | 24.1 | 0.00 | 0.00 | 0.23 | 8 | 994.2 |
| 20260506195542 | 12 | -1 | 11.3 | 17.7 | 0.00 | 0.00 | 0.23 | 8 | 994.9 |
| 20260506195035 | 12 | -1 | 14.5 | 24.1 | 0.00 | 0.00 | 0.23 | 8 | 995.4 |
| 20260506194528 | 12 | -1 | 17.7 | 27.4 | 0.00 | 0.00 | 0.23 | 8 | 995.2 |
| 20260506194021 | 12 | -1 | 11.3 | 16.1 | 0.00 | 0.00 | 0.23 | 7 | 993.8 |
| 20260506193513 | 13 | -1 | 0.0 | 0.0 | 0.00 | 0.00 | 0.20 | 7 | 995.1 |
| 20260506193005 | 13 | -1 | 0.0 | 0.0 | 0.00 | 0.00 | 0.20 | 8 | 994.4 |
| 20260506192458 | 12 | -1 | 0.0 | 0.0 | 0.00 | 0.00 | 0.20 | 8 | 994.8 |
| 20260506191950 | 13 | -1 | 0.0 | 0.0 | 0.00 | 0.00 | 0.20 | 8 | 994.7 |
| 20260506191442 | 13 | 0 | 0.0 | 0.0 | 0.00 | 0.00 | 0.20 | 8 | 994.1 |
| 20260506190934 | 13 | -1 | 0.0 | 0.0 | 0.00 | 0.00 | 0.20 | 8 | 993.3 |
| 20260506190427 | 13 | -1 | 4.8 | 8.0 | 0.00 | 0.00 | 0.20 | 8 | 992.7 |
| 20260506185920 | 13 | 0 | 0.0 | 0.0 | 0.00 | 0.00 | 0.20 | 8 | 991.6 |
| 20260506185413 | 13 | -1 | 0.0 | 0.0 | 0.00 | 0.00 | 0.20 | 8 | 993.7 |
| 20260506184904 | 13 | -1 | 0.0 | 0.0 | 0.00 | 0.00 | 0.20 | 9 | 993.7 |
| 20260506184356 | 13 | -1 | 4.8 | 9.7 | 0.00 | 0.00 | 0.20 | 9 | 993.6 |
| 20260506183849 | 13 | -1 | 8.0 | 11.3 | 0.00 | 0.00 | 0.20 | 9 | 993.5 |
| 20260506183342 | 13 | -1 | 8.0 | 14.5 | 0.00 | 0.00 | 0.20 | 9 | 993.2 |
| 20260506182834 | 13 | -1 | 9.7 | 16.1 | 0.00 | 0.00 | 0.20 | 9 | 992.4 |
| 20260506182326 | 13 | -1 | 12.9 | 25.7 | 0.00 | 0.00 | 0.20 | 9 | 992.5 |
| 20260506181819 | 13 | -1 | 11.3 | 24.1 | 0.00 | 0.00 | 0.20 | 8 | 991.6 |
| 20260506181312 | 13 | -1 | 16.1 | 24.1 | 0.00 | 0.00 | 0.20 | 8 | 991.2 |
| 20260506180803 | 14 | -1 | 11.3 | 20.9 | 0.00 | 0.00 | 0.20 | 8 | 991.1 |
| 20260506180256 | 14 | -1 | 14.5 | 20.9 | 0.00 | 0.00 | 0.20 | 8 | 991.5 |
| 20260506175749 | 14 | -1 | 12.9 | 20.9 | 0.00 | 0.00 | 0.20 | 8 | 990.7 |
| 20260506175242 | 14 | -1 | 6.4 | 12.9 | 0.00 | 0.00 | 0.20 | 8 | 991.2 |
| 20260506174735 | 14 | -1 | 8.0 | 14.5 | 0.00 | 0.00 | 0.20 | 8 | 992.2 |
| 20260506174227 | 13 | -1 | 9.7 | 19.3 | 0.00 | 0.00 | 0.20 | 8 | 993.7 |
| 20260506173720 | 13 | -1 | 0.0 | 0.0 | 0.00 | 0.00 | 0.20 | 9 | 993.6 |
| 20260506173212 | 13 | -1 | 6.4 | 11.3 | 0.00 | 0.00 | 0.20 | 8 | 994.7 |
| 20260506172704 | 13 | -1 | 9.7 | 12.9 | 0.00 | 0.00 | 0.20 | 9 | 994.8 |
| 20260506172157 | 14 | -1 | 0.0 | 0.0 | 0.00 | 0.00 | 0.20 | 9 | 993.9 |
| 20260506171649 | 14 | -1 | 0.0 | 0.0 | 0.00 | 0.00 | 0.20 | 9 | 993.3 |
| 20260506171141 | 14 | -1 | 6.4 | 12.9 | 0.00 | 0.00 | 0.20 | 8 | 993.2 |
| 20260506170634 | 14 | -1 | 8.0 | 12.9 | 0.00 | 0.00 | 0.20 | 8 | 993.0 |